sensor_id;sensor_type;location;lat;lon;timestamp;P1;durP1;ratioP1;P2;durP2;ratioP2
74707;SDS011;63360;50.104;8.074;2023-08-01T00:02:22;9.55;;;0.98;;
74707;SDS011;63360;50.104;8.074;2023-08-01T00:04:48;2.47;;;0.70;;
74707;SDS011;63360;50.104;8.074;2023-08-01T00:07:15;5.90;;;0.77;;
74707;SDS011;63360;50.104;8.074;2023-08-01T00:09:41;4.35;;;0.60;;
74707;SDS011;63360;50.104;8.074;2023-08-01T00:12:08;2.17;;;0.68;;
74707;SDS011;63360;50.104;8.074;2023-08-01T00:14:35;2.50;;;0.70;;
74707;SDS011;63360;50.104;8.074;2023-08-01T00:17:02;2.92;;;0.95;;
74707;SDS011;63360;50.104;8.074;2023-08-01T00:19:29;5.07;;;1.77;;
74707;SDS011;63360;50.104;8.074;2023-08-01T00:21:55;3.60;;;1.00;;
74707;SDS011;63360;50.104;8.074;2023-08-01T00:24:21;12.77;;;1.67;;
74707;SDS011;63360;50.104;8.074;2023-08-01T00:26:48;2.75;;;1.20;;
74707;SDS011;63360;50.104;8.074;2023-08-01T00:29:14;2.95;;;1.20;;
74707;SDS011;63360;50.104;8.074;2023-08-01T00:31:41;2.60;;;1.20;;
74707;SDS011;63360;50.104;8.074;2023-08-01T00:34:07;3.75;;;1.33;;
74707;SDS011;63360;50.104;8.074;2023-08-01T00:36:34;3.38;;;1.20;;
74707;SDS011;63360;50.104;8.074;2023-08-01T00:39:00;3.53;;;1.40;;
74707;SDS011;63360;50.104;8.074;2023-08-01T00:41:27;2.33;;;1.10;;
74707;SDS011;63360;50.104;8.074;2023-08-01T00:43:53;3.47;;;1.00;;
74707;SDS011;63360;50.104;8.074;2023-08-01T00:46:20;4.03;;;1.38;;
74707;SDS011;63360;50.104;8.074;2023-08-01T00:48:46;3.38;;;1.35;;
74707;SDS011;63360;50.104;8.074;2023-08-01T00:51:15;5.05;;;1.20;;
74707;SDS011;63360;50.104;8.074;2023-08-01T00:53:44;2.60;;;0.80;;
74707;SDS011;63360;50.104;8.074;2023-08-01T00:56:12;3.33;;;0.83;;
74707;SDS011;63360;50.104;8.074;2023-08-01T00:58:39;2.95;;;0.80;;
74707;SDS011;63360;50.104;8.074;2023-08-01T01:01:05;4.43;;;0.73;;
74707;SDS011;63360;50.104;8.074;2023-08-01T01:03:32;2.38;;;0.70;;
74707;SDS011;63360;50.104;8.074;2023-08-01T01:06:06;1.75;;;0.60;;
74707;SDS011;63360;50.104;8.074;2023-08-01T01:08:34;1.47;;;0.73;;
74707;SDS011;63360;50.104;8.074;2023-08-01T01:11:01;2.30;;;0.88;;
74707;SDS011;63360;50.104;8.074;2023-08-01T01:13:27;2.30;;;0.93;;
74707;SDS011;63360;50.104;8.074;2023-08-01T01:15:54;3.78;;;1.00;;
74707;SDS011;63360;50.104;8.074;2023-08-01T01:18:20;3.03;;;1.13;;
74707;SDS011;63360;50.104;8.074;2023-08-01T01:20:47;2.63;;;0.97;;
74707;SDS011;63360;50.104;8.074;2023-08-01T01:23:13;2.67;;;1.05;;
74707;SDS011;63360;50.104;8.074;2023-08-01T01:25:40;4.43;;;1.30;;
74707;SDS011;63360;50.104;8.074;2023-08-01T01:28:07;3.13;;;1.20;;
74707;SDS011;63360;50.104;8.074;2023-08-01T01:30:36;4.78;;;1.42;;
74707;SDS011;63360;50.104;8.074;2023-08-01T01:33:03;3.60;;;1.17;;
74707;SDS011;63360;50.104;8.074;2023-08-01T01:35:32;4.35;;;1.30;;
74707;SDS011;63360;50.104;8.074;2023-08-01T01:38:00;3.53;;;1.45;;
74707;SDS011;63360;50.104;8.074;2023-08-01T01:40:30;3.65;;;1.40;;
74707;SDS011;63360;50.104;8.074;2023-08-01T01:42:58;3.33;;;1.30;;
74707;SDS011;63360;50.104;8.074;2023-08-01T01:45:25;3.83;;;1.13;;
74707;SDS011;63360;50.104;8.074;2023-08-01T01:47:52;3.20;;;1.13;;
74707;SDS011;63360;50.104;8.074;2023-08-01T01:50:19;3.70;;;1.10;;
74707;SDS011;63360;50.104;8.074;2023-08-01T01:52:45;4.72;;;1.20;;
74707;SDS011;63360;50.104;8.074;2023-08-01T01:55:12;3.35;;;1.20;;
74707;SDS011;63360;50.104;8.074;2023-08-01T01:57:39;4.47;;;1.20;;
74707;SDS011;63360;50.104;8.074;2023-08-01T02:00:06;3.97;;;1.30;;
74707;SDS011;63360;50.104;8.074;2023-08-01T02:02:36;2.53;;;1.00;;
74707;SDS011;63360;50.104;8.074;2023-08-01T02:05:03;2.85;;;1.13;;
74707;SDS011;63360;50.104;8.074;2023-08-01T02:07:32;4.80;;;1.40;;
74707;SDS011;63360;50.104;8.074;2023-08-01T02:10:00;2.73;;;1.00;;
74707;SDS011;63360;50.104;8.074;2023-08-01T02:12:27;4.90;;;1.10;;
74707;SDS011;63360;50.104;8.074;2023-08-01T02:14:54;3.00;;;0.93;;
74707;SDS011;63360;50.104;8.074;2023-08-01T02:17:20;2.83;;;1.00;;
74707;SDS011;63360;50.104;8.074;2023-08-01T02:19:47;2.80;;;1.20;;
74707;SDS011;63360;50.104;8.074;2023-08-01T02:22:13;3.03;;;1.00;;
74707;SDS011;63360;50.104;8.074;2023-08-01T02:24:40;1.55;;;0.82;;
74707;SDS011;63360;50.104;8.074;2023-08-01T02:27:06;2.97;;;0.90;;
74707;SDS011;63360;50.104;8.074;2023-08-01T02:29:32;2.95;;;1.00;;
74707;SDS011;63360;50.104;8.074;2023-08-01T02:32:00;4.85;;;0.98;;
74707;SDS011;63360;50.104;8.074;2023-08-01T02:34:26;2.93;;;0.77;;
74707;SDS011;63360;50.104;8.074;2023-08-01T02:36:53;4.07;;;0.90;;
74707;SDS011;63360;50.104;8.074;2023-08-01T02:39:19;2.50;;;1.08;;
74707;SDS011;63360;50.104;8.074;2023-08-01T02:41:46;1.90;;;0.90;;
74707;SDS011;63360;50.104;8.074;2023-08-01T02:44:12;3.13;;;0.90;;
74707;SDS011;63360;50.104;8.074;2023-08-01T02:46:39;3.90;;;1.10;;
74707;SDS011;63360;50.104;8.074;2023-08-01T02:49:06;3.50;;;1.13;;
74707;SDS011;63360;50.104;8.074;2023-08-01T02:51:32;3.55;;;1.02;;
74707;SDS011;63360;50.104;8.074;2023-08-01T02:53:59;3.22;;;1.30;;
74707;SDS011;63360;50.104;8.074;2023-08-01T02:56:25;2.50;;;1.00;;
74707;SDS011;63360;50.104;8.074;2023-08-01T02:58:53;3.10;;;1.10;;
74707;SDS011;63360;50.104;8.074;2023-08-01T03:01:22;3.20;;;1.00;;
74707;SDS011;63360;50.104;8.074;2023-08-01T03:03:48;2.78;;;0.90;;
74707;SDS011;63360;50.104;8.074;2023-08-01T03:06:15;2.47;;;0.70;;
74707;SDS011;63360;50.104;8.074;2023-08-01T03:08:42;2.55;;;0.73;;
74707;SDS011;63360;50.104;8.074;2023-08-01T03:11:09;1.83;;;0.80;;
74707;SDS011;63360;50.104;8.074;2023-08-01T03:13:35;3.10;;;0.77;;
74707;SDS011;63360;50.104;8.074;2023-08-01T03:16:02;1.38;;;0.60;;
74707;SDS011;63360;50.104;8.074;2023-08-01T03:18:30;2.08;;;0.70;;
74707;SDS011;63360;50.104;8.074;2023-08-01T03:20:57;2.97;;;0.60;;
74707;SDS011;63360;50.104;8.074;2023-08-01T03:23:23;2.10;;;0.70;;
74707;SDS011;63360;50.104;8.074;2023-08-01T03:25:50;1.95;;;0.60;;
74707;SDS011;63360;50.104;8.074;2023-08-01T03:28:16;4.50;;;0.57;;
74707;SDS011;63360;50.104;8.074;2023-08-01T03:30:43;4.70;;;0.63;;
74707;SDS011;63360;50.104;8.074;2023-08-01T03:33:09;1.98;;;0.50;;
74707;SDS011;63360;50.104;8.074;2023-08-01T03:35:35;3.63;;;0.53;;
74707;SDS011;63360;50.104;8.074;2023-08-01T03:38:02;2.15;;;0.50;;
74707;SDS011;63360;50.104;8.074;2023-08-01T03:40:28;2.45;;;0.60;;
74707;SDS011;63360;50.104;8.074;2023-08-01T03:42:55;1.38;;;0.50;;
74707;SDS011;63360;50.104;8.074;2023-08-01T03:45:21;0.90;;;0.47;;
74707;SDS011;63360;50.104;8.074;2023-08-01T03:47:48;1.57;;;0.40;;
74707;SDS011;63360;50.104;8.074;2023-08-01T03:50:14;0.77;;;0.32;;
74707;SDS011;63360;50.104;8.074;2023-08-01T03:52:41;3.15;;;0.57;;
74707;SDS011;63360;50.104;8.074;2023-08-01T03:55:07;1.73;;;0.40;;
74707;SDS011;63360;50.104;8.074;2023-08-01T03:57:34;2.03;;;0.32;;
74707;SDS011;63360;50.104;8.074;2023-08-01T04:00:00;0.93;;;0.40;;
74707;SDS011;63360;50.104;8.074;2023-08-01T04:02:27;1.30;;;0.30;;
74707;SDS011;63360;50.104;8.074;2023-08-01T04:04:54;1.58;;;0.40;;
74707;SDS011;63360;50.104;8.074;2023-08-01T04:07:20;3.33;;;0.47;;
74707;SDS011;63360;50.104;8.074;2023-08-01T04:09:47;1.70;;;0.30;;
74707;SDS011;63360;50.104;8.074;2023-08-01T04:12:13;0.90;;;0.30;;
74707;SDS011;63360;50.104;8.074;2023-08-01T04:14:39;0.80;;;0.30;;
74707;SDS011;63360;50.104;8.074;2023-08-01T04:17:06;2.20;;;0.40;;
74707;SDS011;63360;50.104;8.074;2023-08-01T04:19:33;1.30;;;0.30;;
74707;SDS011;63360;50.104;8.074;2023-08-01T04:21:59;2.10;;;0.30;;
74707;SDS011;63360;50.104;8.074;2023-08-01T04:24:25;2.13;;;0.50;;
74707;SDS011;63360;50.104;8.074;2023-08-01T04:26:53;2.05;;;0.50;;
74707;SDS011;63360;50.104;8.074;2023-08-01T04:29:20;1.80;;;0.50;;
74707;SDS011;63360;50.104;8.074;2023-08-01T04:31:46;2.63;;;0.43;;
74707;SDS011;63360;50.104;8.074;2023-08-01T04:34:13;1.13;;;0.50;;
74707;SDS011;63360;50.104;8.074;2023-08-01T04:36:39;2.03;;;0.47;;
74707;SDS011;63360;50.104;8.074;2023-08-01T04:39:06;2.13;;;0.60;;
74707;SDS011;63360;50.104;8.074;2023-08-01T04:41:33;1.50;;;0.60;;
74707;SDS011;63360;50.104;8.074;2023-08-01T04:43:59;2.58;;;0.50;;
74707;SDS011;63360;50.104;8.074;2023-08-01T04:46:25;1.00;;;0.45;;
74707;SDS011;63360;50.104;8.074;2023-08-01T04:48:52;1.87;;;0.53;;
74707;SDS011;63360;50.104;8.074;2023-08-01T04:51:18;4.78;;;0.70;;
74707;SDS011;63360;50.104;8.074;2023-08-01T04:53:45;2.42;;;0.52;;
74707;SDS011;63360;50.104;8.074;2023-08-01T04:56:11;2.72;;;0.50;;
74707;SDS011;63360;50.104;8.074;2023-08-01T04:58:37;1.20;;;0.45;;
74707;SDS011;63360;50.104;8.074;2023-08-01T05:01:04;1.60;;;0.50;;
74707;SDS011;63360;50.104;8.074;2023-08-01T05:03:30;1.15;;;0.40;;
74707;SDS011;63360;50.104;8.074;2023-08-01T05:05:57;1.95;;;0.50;;
74707;SDS011;63360;50.104;8.074;2023-08-01T05:08:23;1.40;;;0.50;;
74707;SDS011;63360;50.104;8.074;2023-08-01T05:10:50;1.25;;;0.60;;
74707;SDS011;63360;50.104;8.074;2023-08-01T05:13:17;2.50;;;0.50;;
74707;SDS011;63360;50.104;8.074;2023-08-01T05:15:44;0.90;;;0.40;;
74707;SDS011;63360;50.104;8.074;2023-08-01T05:18:14;1.33;;;0.50;;
74707;SDS011;63360;50.104;8.074;2023-08-01T05:20:42;1.55;;;0.50;;
74707;SDS011;63360;50.104;8.074;2023-08-01T05:23:08;2.65;;;0.50;;
74707;SDS011;63360;50.104;8.074;2023-08-01T05:25:35;4.20;;;0.70;;
74707;SDS011;63360;50.104;8.074;2023-08-01T05:28:01;3.60;;;0.55;;
74707;SDS011;63360;50.104;8.074;2023-08-01T05:30:28;3.97;;;0.40;;
74707;SDS011;63360;50.104;8.074;2023-08-01T05:32:55;2.72;;;0.40;;
74707;SDS011;63360;50.104;8.074;2023-08-01T05:35:21;1.77;;;0.30;;
74707;SDS011;63360;50.104;8.074;2023-08-01T05:37:48;2.50;;;0.40;;
74707;SDS011;63360;50.104;8.074;2023-08-01T05:40:14;10.40;;;0.60;;
74707;SDS011;63360;50.104;8.074;2023-08-01T05:42:41;6.45;;;0.50;;
74707;SDS011;63360;50.104;8.074;2023-08-01T05:45:07;1.10;;;0.38;;
74707;SDS011;63360;50.104;8.074;2023-08-01T05:47:34;2.92;;;0.40;;
74707;SDS011;63360;50.104;8.074;2023-08-01T05:50:03;3.60;;;0.30;;
74707;SDS011;63360;50.104;8.074;2023-08-01T05:52:29;1.67;;;0.30;;
74707;SDS011;63360;50.104;8.074;2023-08-01T05:54:56;1.88;;;0.93;;
74707;SDS011;63360;50.104;8.074;2023-08-01T05:57:22;3.28;;;0.82;;
74707;SDS011;63360;50.104;8.074;2023-08-01T05:59:49;2.95;;;0.75;;
74707;SDS011;63360;50.104;8.074;2023-08-01T06:02:15;1.03;;;0.30;;
74707;SDS011;63360;50.104;8.074;2023-08-01T06:04:42;0.50;;;0.20;;
74707;SDS011;63360;50.104;8.074;2023-08-01T06:07:08;0.63;;;0.32;;
74707;SDS011;63360;50.104;8.074;2023-08-01T06:09:35;1.55;;;0.20;;
74707;SDS011;63360;50.104;8.074;2023-08-01T06:12:01;0.50;;;0.20;;
74707;SDS011;63360;50.104;8.074;2023-08-01T06:14:29;0.50;;;0.17;;
74707;SDS011;63360;50.104;8.074;2023-08-01T06:16:55;0.77;;;0.20;;
74707;SDS011;63360;50.104;8.074;2023-08-01T06:19:22;1.58;;;0.20;;
74707;SDS011;63360;50.104;8.074;2023-08-01T06:21:48;2.08;;;0.30;;
74707;SDS011;63360;50.104;8.074;2023-08-01T06:24:15;0.80;;;0.30;;
74707;SDS011;63360;50.104;8.074;2023-08-01T06:26:41;0.80;;;0.40;;
74707;SDS011;63360;50.104;8.074;2023-08-01T06:29:08;0.93;;;0.47;;
74707;SDS011;63360;50.104;8.074;2023-08-01T06:31:35;1.52;;;0.57;;
74707;SDS011;63360;50.104;8.074;2023-08-01T06:34:01;1.92;;;0.60;;
74707;SDS011;63360;50.104;8.074;2023-08-01T06:36:28;1.20;;;0.60;;
74707;SDS011;63360;50.104;8.074;2023-08-01T06:38:54;1.30;;;0.50;;
74707;SDS011;63360;50.104;8.074;2023-08-01T06:41:20;2.65;;;0.57;;
74707;SDS011;63360;50.104;8.074;2023-08-01T06:43:47;2.20;;;0.50;;
74707;SDS011;63360;50.104;8.074;2023-08-01T06:46:13;2.17;;;0.60;;
74707;SDS011;63360;50.104;8.074;2023-08-01T06:48:40;1.08;;;0.60;;
74707;SDS011;63360;50.104;8.074;2023-08-01T06:51:06;1.97;;;0.70;;
74707;SDS011;63360;50.104;8.074;2023-08-01T06:53:33;1.65;;;0.60;;
74707;SDS011;63360;50.104;8.074;2023-08-01T06:55:59;2.03;;;0.70;;
74707;SDS011;63360;50.104;8.074;2023-08-01T06:58:26;1.25;;;0.70;;
74707;SDS011;63360;50.104;8.074;2023-08-01T07:00:52;1.00;;;0.60;;
74707;SDS011;63360;50.104;8.074;2023-08-01T07:03:18;2.03;;;0.70;;
74707;SDS011;63360;50.104;8.074;2023-08-01T07:05:45;2.42;;;0.70;;
74707;SDS011;63360;50.104;8.074;2023-08-01T07:08:11;1.67;;;0.70;;
74707;SDS011;63360;50.104;8.074;2023-08-01T07:10:38;1.67;;;0.63;;
74707;SDS011;63360;50.104;8.074;2023-08-01T07:13:05;1.73;;;0.57;;
74707;SDS011;63360;50.104;8.074;2023-08-01T07:15:32;1.67;;;0.70;;
74707;SDS011;63360;50.104;8.074;2023-08-01T07:17:59;2.55;;;0.70;;
74707;SDS011;63360;50.104;8.074;2023-08-01T07:20:26;1.50;;;0.60;;
74707;SDS011;63360;50.104;8.074;2023-08-01T07:22:52;2.00;;;0.95;;
74707;SDS011;63360;50.104;8.074;2023-08-01T07:25:19;1.85;;;0.73;;
74707;SDS011;63360;50.104;8.074;2023-08-01T07:27:45;2.17;;;0.70;;
74707;SDS011;63360;50.104;8.074;2023-08-01T07:30:12;1.70;;;0.70;;
74707;SDS011;63360;50.104;8.074;2023-08-01T07:32:39;1.40;;;0.80;;
74707;SDS011;63360;50.104;8.074;2023-08-01T07:35:06;1.23;;;0.52;;
74707;SDS011;63360;50.104;8.074;2023-08-01T07:37:33;2.38;;;0.80;;
74707;SDS011;63360;50.104;8.074;2023-08-01T07:39:59;3.20;;;0.60;;
74707;SDS011;63360;50.104;8.074;2023-08-01T07:42:26;1.98;;;0.68;;
74707;SDS011;63360;50.104;8.074;2023-08-01T07:44:52;2.33;;;0.70;;
74707;SDS011;63360;50.104;8.074;2023-08-01T07:47:20;1.98;;;0.70;;
74707;SDS011;63360;50.104;8.074;2023-08-01T07:49:46;2.90;;;0.68;;
74707;SDS011;63360;50.104;8.074;2023-08-01T07:52:13;1.70;;;0.90;;
74707;SDS011;63360;50.104;8.074;2023-08-01T07:54:39;1.42;;;0.77;;
74707;SDS011;63360;50.104;8.074;2023-08-01T07:57:06;1.85;;;0.75;;
74707;SDS011;63360;50.104;8.074;2023-08-01T07:59:32;2.72;;;0.90;;
74707;SDS011;63360;50.104;8.074;2023-08-01T08:01:59;5.15;;;1.00;;
74707;SDS011;63360;50.104;8.074;2023-08-01T08:04:26;2.03;;;0.80;;
74707;SDS011;63360;50.104;8.074;2023-08-01T08:06:52;1.63;;;0.70;;
74707;SDS011;63360;50.104;8.074;2023-08-01T08:09:21;1.95;;;0.98;;
74707;SDS011;63360;50.104;8.074;2023-08-01T08:11:49;3.42;;;0.90;;
74707;SDS011;63360;50.104;8.074;2023-08-01T08:14:17;5.60;;;1.00;;
74707;SDS011;63360;50.104;8.074;2023-08-01T08:16:43;2.00;;;0.90;;
74707;SDS011;63360;50.104;8.074;2023-08-01T08:19:10;1.63;;;0.80;;
74707;SDS011;63360;50.104;8.074;2023-08-01T08:21:37;1.98;;;1.00;;
74707;SDS011;63360;50.104;8.074;2023-08-01T08:24:03;3.00;;;0.80;;
74707;SDS011;63360;50.104;8.074;2023-08-01T08:26:30;1.88;;;0.88;;
74707;SDS011;63360;50.104;8.074;2023-08-01T08:28:57;3.97;;;1.00;;
74707;SDS011;63360;50.104;8.074;2023-08-01T08:31:24;2.75;;;0.82;;
74707;SDS011;63360;50.104;8.074;2023-08-01T08:33:50;2.08;;;1.00;;
74707;SDS011;63360;50.104;8.074;2023-08-01T08:36:17;2.28;;;0.98;;
74707;SDS011;63360;50.104;8.074;2023-08-01T08:38:43;2.15;;;1.00;;
74707;SDS011;63360;50.104;8.074;2023-08-01T08:41:11;2.50;;;1.00;;
74707;SDS011;63360;50.104;8.074;2023-08-01T08:43:45;2.03;;;1.10;;
74707;SDS011;63360;50.104;8.074;2023-08-01T08:46:14;2.10;;;1.00;;
74707;SDS011;63360;50.104;8.074;2023-08-01T08:48:42;1.77;;;1.05;;
74707;SDS011;63360;50.104;8.074;2023-08-01T08:51:10;2.60;;;0.90;;
74707;SDS011;63360;50.104;8.074;2023-08-01T08:53:39;3.60;;;1.13;;
74707;SDS011;63360;50.104;8.074;2023-08-01T08:56:08;2.45;;;1.10;;
74707;SDS011;63360;50.104;8.074;2023-08-01T08:58:36;2.10;;;1.00;;
74707;SDS011;63360;50.104;8.074;2023-08-01T09:01:05;1.92;;;0.95;;
74707;SDS011;63360;50.104;8.074;2023-08-01T09:03:32;2.03;;;1.00;;
74707;SDS011;63360;50.104;8.074;2023-08-01T09:06:00;1.67;;;0.90;;
74707;SDS011;63360;50.104;8.074;2023-08-01T09:08:31;2.35;;;1.10;;
74707;SDS011;63360;50.104;8.074;2023-08-01T09:11:00;2.67;;;1.10;;
74707;SDS011;63360;50.104;8.074;2023-08-01T09:13:27;2.55;;;0.85;;
74707;SDS011;63360;50.104;8.074;2023-08-01T09:15:53;2.03;;;1.00;;
74707;SDS011;63360;50.104;8.074;2023-08-01T09:18:22;2.30;;;1.20;;
74707;SDS011;63360;50.104;8.074;2023-08-01T09:20:49;3.08;;;1.10;;
74707;SDS011;63360;50.104;8.074;2023-08-01T09:23:16;3.47;;;1.02;;
74707;SDS011;63360;50.104;8.074;2023-08-01T09:25:43;3.42;;;1.17;;
74707;SDS011;63360;50.104;8.074;2023-08-01T09:28:17;3.33;;;1.00;;
74707;SDS011;63360;50.104;8.074;2023-08-01T09:33:20;2.60;;;1.00;;
74707;SDS011;63360;50.104;8.074;2023-08-01T09:35:51;3.10;;;0.93;;
74707;SDS011;63360;50.104;8.074;2023-08-01T09:38:18;4.55;;;1.10;;
74707;SDS011;63360;50.104;8.074;2023-08-01T09:40:45;2.17;;;1.00;;
74707;SDS011;63360;50.104;8.074;2023-08-01T09:43:12;3.20;;;1.10;;
74707;SDS011;63360;50.104;8.074;2023-08-01T09:45:57;3.28;;;1.10;;
74707;SDS011;63360;50.104;8.074;2023-08-01T09:48:27;2.47;;;0.82;;
74707;SDS011;63360;50.104;8.074;2023-08-01T09:53:48;2.00;;;0.88;;
74707;SDS011;63360;50.104;8.074;2023-08-01T09:56:18;4.20;;;1.20;;
74707;SDS011;63360;50.104;8.074;2023-08-01T09:58:47;1.90;;;1.10;;
74707;SDS011;63360;50.104;8.074;2023-08-01T10:01:14;5.65;;;1.23;;
74707;SDS011;63360;50.104;8.074;2023-08-01T10:03:45;2.72;;;1.20;;
74707;SDS011;63360;50.104;8.074;2023-08-01T10:06:18;3.92;;;1.10;;
74707;SDS011;63360;50.104;8.074;2023-08-01T10:08:46;3.87;;;1.00;;
74707;SDS011;63360;50.104;8.074;2023-08-01T10:11:17;4.40;;;0.98;;
74707;SDS011;63360;50.104;8.074;2023-08-01T10:13:45;4.47;;;1.20;;
74707;SDS011;63360;50.104;8.074;2023-08-01T10:16:12;3.25;;;1.17;;
74707;SDS011;63360;50.104;8.074;2023-08-01T10:18:40;3.63;;;0.98;;
74707;SDS011;63360;50.104;8.074;2023-08-01T10:21:07;2.10;;;1.00;;
74707;SDS011;63360;50.104;8.074;2023-08-01T10:23:37;4.10;;;1.13;;
74707;SDS011;63360;50.104;8.074;2023-08-01T10:26:05;4.05;;;1.20;;
74707;SDS011;63360;50.104;8.074;2023-08-01T10:28:34;2.13;;;1.02;;
74707;SDS011;63360;50.104;8.074;2023-08-01T10:31:11;5.13;;;1.23;;
74707;SDS011;63360;50.104;8.074;2023-08-01T10:33:40;2.80;;;1.27;;
74707;SDS011;63360;50.104;8.074;2023-08-01T10:36:18;2.53;;;1.33;;
74707;SDS011;63360;50.104;8.074;2023-08-01T10:38:45;3.40;;;1.10;;
74707;SDS011;63360;50.104;8.074;2023-08-01T10:44:12;3.70;;;1.15;;
74707;SDS011;63360;50.104;8.074;2023-08-01T10:46:45;2.37;;;1.10;;
74707;SDS011;63360;50.104;8.074;2023-08-01T10:49:12;2.95;;;1.10;;
74707;SDS011;63360;50.104;8.074;2023-08-01T10:51:40;4.80;;;1.35;;
74707;SDS011;63360;50.104;8.074;2023-08-01T10:54:17;3.55;;;1.40;;
74707;SDS011;63360;50.104;8.074;2023-08-01T10:56:49;3.45;;;1.05;;
74707;SDS011;63360;50.104;8.074;2023-08-01T10:59:17;3.90;;;1.40;;
74707;SDS011;63360;50.104;8.074;2023-08-01T11:01:48;3.60;;;1.10;;
74707;SDS011;63360;50.104;8.074;2023-08-01T11:04:19;2.20;;;1.10;;
74707;SDS011;63360;50.104;8.074;2023-08-01T11:06:51;4.32;;;1.23;;
74707;SDS011;63360;50.104;8.074;2023-08-01T11:09:26;4.93;;;1.13;;
74707;SDS011;63360;50.104;8.074;2023-08-01T11:11:54;3.23;;;1.20;;
74707;SDS011;63360;50.104;8.074;2023-08-01T11:14:22;3.25;;;1.25;;
74707;SDS011;63360;50.104;8.074;2023-08-01T11:16:50;3.20;;;1.05;;
74707;SDS011;63360;50.104;8.074;2023-08-01T11:19:20;2.63;;;1.10;;
74707;SDS011;63360;50.104;8.074;2023-08-01T11:21:52;3.15;;;1.13;;
74707;SDS011;63360;50.104;8.074;2023-08-01T11:24:19;3.07;;;1.10;;
74707;SDS011;63360;50.104;8.074;2023-08-01T11:26:47;2.85;;;1.20;;
74707;SDS011;63360;50.104;8.074;2023-08-01T11:29:14;4.60;;;1.20;;
74707;SDS011;63360;50.104;8.074;2023-08-01T11:31:51;4.43;;;1.20;;
74707;SDS011;63360;50.104;8.074;2023-08-01T11:34:19;5.15;;;1.05;;
74707;SDS011;63360;50.104;8.074;2023-08-01T11:36:45;4.20;;;1.00;;
74707;SDS011;63360;50.104;8.074;2023-08-01T11:39:12;4.38;;;1.00;;
74707;SDS011;63360;50.104;8.074;2023-08-01T11:41:40;3.83;;;1.00;;
74707;SDS011;63360;50.104;8.074;2023-08-01T11:44:06;3.75;;;0.90;;
74707;SDS011;63360;50.104;8.074;2023-08-01T11:46:33;4.18;;;1.00;;
74707;SDS011;63360;50.104;8.074;2023-08-01T11:49:02;2.27;;;0.90;;
74707;SDS011;63360;50.104;8.074;2023-08-01T11:51:29;2.25;;;0.90;;
74707;SDS011;63360;50.104;8.074;2023-08-01T11:53:59;2.72;;;0.98;;
74707;SDS011;63360;50.104;8.074;2023-08-01T11:56:27;4.55;;;1.20;;
74707;SDS011;63360;50.104;8.074;2023-08-01T11:58:53;3.05;;;1.00;;
74707;SDS011;63360;50.104;8.074;2023-08-01T12:01:20;4.00;;;1.10;;
74707;SDS011;63360;50.104;8.074;2023-08-01T12:03:50;2.95;;;1.00;;
74707;SDS011;63360;50.104;8.074;2023-08-01T12:06:22;3.42;;;1.20;;
74707;SDS011;63360;50.104;8.074;2023-08-01T12:08:51;2.90;;;1.00;;
74707;SDS011;63360;50.104;8.074;2023-08-01T12:11:23;3.30;;;1.08;;
74707;SDS011;63360;50.104;8.074;2023-08-01T12:16:33;5.15;;;1.10;;
74707;SDS011;63360;50.104;8.074;2023-08-01T12:19:00;3.35;;;1.10;;
74707;SDS011;63360;50.104;8.074;2023-08-01T12:21:27;3.08;;;1.30;;
74707;SDS011;63360;50.104;8.074;2023-08-01T12:23:57;3.85;;;1.40;;
74707;SDS011;63360;50.104;8.074;2023-08-01T12:26:24;2.77;;;1.13;;
74707;SDS011;63360;50.104;8.074;2023-08-01T12:28:51;3.40;;;1.20;;
74707;SDS011;63360;50.104;8.074;2023-08-01T12:31:20;2.83;;;1.33;;
74707;SDS011;63360;50.104;8.074;2023-08-01T12:33:48;5.78;;;1.20;;
74707;SDS011;63360;50.104;8.074;2023-08-01T12:36:15;5.47;;;1.27;;
74707;SDS011;63360;50.104;8.074;2023-08-01T12:38:41;3.30;;;1.10;;
74707;SDS011;63360;50.104;8.074;2023-08-01T12:41:08;3.38;;;1.20;;
74707;SDS011;63360;50.104;8.074;2023-08-01T12:43:34;3.97;;;1.20;;
74707;SDS011;63360;50.104;8.074;2023-08-01T12:46:01;2.90;;;1.30;;
74707;SDS011;63360;50.104;8.074;2023-08-01T12:48:27;4.40;;;1.20;;
74707;SDS011;63360;50.104;8.074;2023-08-01T12:50:54;3.47;;;1.00;;
74707;SDS011;63360;50.104;8.074;2023-08-01T12:53:21;3.55;;;1.15;;
74707;SDS011;63360;50.104;8.074;2023-08-01T12:55:48;2.63;;;1.02;;
74707;SDS011;63360;50.104;8.074;2023-08-01T12:58:16;3.03;;;1.20;;
74707;SDS011;63360;50.104;8.074;2023-08-01T13:00:43;2.40;;;1.08;;
74707;SDS011;63360;50.104;8.074;2023-08-01T13:03:10;3.60;;;1.33;;
74707;SDS011;63360;50.104;8.074;2023-08-01T13:05:39;4.07;;;1.30;;
74707;SDS011;63360;50.104;8.074;2023-08-01T13:08:06;3.97;;;1.00;;
74707;SDS011;63360;50.104;8.074;2023-08-01T13:10:33;3.35;;;1.20;;
74707;SDS011;63360;50.104;8.074;2023-08-01T13:13:01;2.72;;;1.20;;
74707;SDS011;63360;50.104;8.074;2023-08-01T13:15:28;4.63;;;1.10;;
74707;SDS011;63360;50.104;8.074;2023-08-01T13:17:55;3.25;;;1.00;;
74707;SDS011;63360;50.104;8.074;2023-08-01T13:20:22;5.80;;;2.42;;
74707;SDS011;63360;50.104;8.074;2023-08-01T13:22:50;2.65;;;1.15;;
74707;SDS011;63360;50.104;8.074;2023-08-01T13:25:17;2.22;;;0.90;;
74707;SDS011;63360;50.104;8.074;2023-08-01T13:27:44;4.00;;;1.10;;
74707;SDS011;63360;50.104;8.074;2023-08-01T13:30:11;3.00;;;0.90;;
74707;SDS011;63360;50.104;8.074;2023-08-01T13:32:40;2.90;;;1.10;;
74707;SDS011;63360;50.104;8.074;2023-08-01T13:35:08;2.35;;;0.85;;
74707;SDS011;63360;50.104;8.074;2023-08-01T13:37:34;3.00;;;1.05;;
74707;SDS011;63360;50.104;8.074;2023-08-01T13:40:01;1.83;;;0.83;;
74707;SDS011;63360;50.104;8.074;2023-08-01T13:42:28;3.15;;;0.98;;
74707;SDS011;63360;50.104;8.074;2023-08-01T13:44:55;3.00;;;0.70;;
74707;SDS011;63360;50.104;8.074;2023-08-01T13:47:21;2.20;;;0.75;;
74707;SDS011;63360;50.104;8.074;2023-08-01T13:49:48;1.85;;;0.70;;
74707;SDS011;63360;50.104;8.074;2023-08-01T13:52:14;9.00;;;1.13;;
74707;SDS011;63360;50.104;8.074;2023-08-01T13:54:41;3.05;;;0.90;;
74707;SDS011;63360;50.104;8.074;2023-08-01T13:57:07;4.43;;;0.70;;
74707;SDS011;63360;50.104;8.074;2023-08-01T13:59:34;2.13;;;0.75;;
74707;SDS011;63360;50.104;8.074;2023-08-01T14:02:01;2.80;;;0.80;;
74707;SDS011;63360;50.104;8.074;2023-08-01T14:04:27;3.60;;;1.03;;
74707;SDS011;63360;50.104;8.074;2023-08-01T14:06:53;2.00;;;1.00;;
74707;SDS011;63360;50.104;8.074;2023-08-01T14:09:21;4.25;;;0.80;;
74707;SDS011;63360;50.104;8.074;2023-08-01T14:11:47;2.90;;;0.90;;
74707;SDS011;63360;50.104;8.074;2023-08-01T14:14:14;3.58;;;0.90;;
74707;SDS011;63360;50.104;8.074;2023-08-01T14:16:43;2.40;;;0.87;;
74707;SDS011;63360;50.104;8.074;2023-08-01T14:19:10;3.22;;;0.88;;
74707;SDS011;63360;50.104;8.074;2023-08-01T14:21:36;4.07;;;1.23;;
74707;SDS011;63360;50.104;8.074;2023-08-01T14:24:03;2.90;;;1.00;;
74707;SDS011;63360;50.104;8.074;2023-08-01T14:26:30;4.07;;;0.95;;
74707;SDS011;63360;50.104;8.074;2023-08-01T14:28:56;2.60;;;1.00;;
74707;SDS011;63360;50.104;8.074;2023-08-01T14:31:23;4.13;;;1.00;;
74707;SDS011;63360;50.104;8.074;2023-08-01T14:33:49;3.28;;;0.88;;
74707;SDS011;63360;50.104;8.074;2023-08-01T14:36:16;2.92;;;0.82;;
74707;SDS011;63360;50.104;8.074;2023-08-01T14:38:42;2.10;;;0.70;;
74707;SDS011;63360;50.104;8.074;2023-08-01T14:41:08;1.67;;;0.67;;
74707;SDS011;63360;50.104;8.074;2023-08-01T14:43:47;4.10;;;0.70;;
74707;SDS011;63360;50.104;8.074;2023-08-01T14:46:14;3.58;;;0.70;;
74707;SDS011;63360;50.104;8.074;2023-08-01T14:48:40;2.40;;;0.80;;
74707;SDS011;63360;50.104;8.074;2023-08-01T14:51:07;3.67;;;0.90;;
74707;SDS011;63360;50.104;8.074;2023-08-01T14:53:33;3.43;;;0.60;;
74707;SDS011;63360;50.104;8.074;2023-08-01T14:56:00;1.80;;;0.63;;
74707;SDS011;63360;50.104;8.074;2023-08-01T14:58:29;2.35;;;0.70;;
74707;SDS011;63360;50.104;8.074;2023-08-01T15:00:55;2.58;;;0.75;;